sensor_id;sensor_type;location;lat;lon;timestamp;temperature;humidity
13416;DHT22;6779;50.150;8.680;2022-07-06T00:01:19;19.70;99.90
13416;DHT22;6779;50.150;8.680;2022-07-06T00:03:44;19.70;99.90
13416;DHT22;6779;50.150;8.680;2022-07-06T00:06:10;19.70;99.90
13416;DHT22;6779;50.150;8.680;2022-07-06T00:08:36;19.60;99.90
13416;DHT22;6779;50.150;8.680;2022-07-06T00:11:02;19.60;99.90
13416;DHT22;6779;50.150;8.680;2022-07-06T00:13:28;19.60;99.90
13416;DHT22;6779;50.150;8.680;2022-07-06T00:15:54;19.50;99.90
13416;DHT22;6779;50.150;8.680;2022-07-06T00:18:19;19.50;99.90
13416;DHT22;6779;50.150;8.680;2022-07-06T00:20:45;19.40;99.90
13416;DHT22;6779;50.150;8.680;2022-07-06T00:23:11;19.40;99.90
13416;DHT22;6779;50.150;8.680;2022-07-06T00:25:37;19.40;99.90
13416;DHT22;6779;50.150;8.680;2022-07-06T00:28:03;19.30;99.90
13416;DHT22;6779;50.150;8.680;2022-07-06T00:30:28;19.20;99.90
13416;DHT22;6779;50.150;8.680;2022-07-06T00:32:54;19.30;99.90
13416;DHT22;6779;50.150;8.680;2022-07-06T00:35:20;19.20;99.90
13416;DHT22;6779;50.150;8.680;2022-07-06T00:37:45;19.20;99.90
13416;DHT22;6779;50.150;8.680;2022-07-06T00:40:11;19.20;99.90
13416;DHT22;6779;50.150;8.680;2022-07-06T00:42:41;19.20;99.90
13416;DHT22;6779;50.150;8.680;2022-07-06T00:45:07;19.20;99.90
13416;DHT22;6779;50.150;8.680;2022-07-06T00:47:33;19.20;99.90
13416;DHT22;6779;50.150;8.680;2022-07-06T00:49:58;19.20;99.90
13416;DHT22;6779;50.150;8.680;2022-07-06T00:52:40;19.20;99.90
13416;DHT22;6779;50.150;8.680;2022-07-06T00:55:06;19.20;99.90
13416;DHT22;6779;50.150;8.680;2022-07-06T00:57:32;19.10;99.90
13416;DHT22;6779;50.150;8.680;2022-07-06T00:59:58;19.10;99.90
13416;DHT22;6779;50.150;8.680;2022-07-06T01:02:24;19.10;99.90
13416;DHT22;6779;50.150;8.680;2022-07-06T01:04:49;19.10;99.90
13416;DHT22;6779;50.150;8.680;2022-07-06T01:07:16;19.10;99.90
13416;DHT22;6779;50.150;8.680;2022-07-06T01:09:42;19.10;99.90
13416;DHT22;6779;50.150;8.680;2022-07-06T01:12:07;18.90;99.90
13416;DHT22;6779;50.150;8.680;2022-07-06T01:14:34;18.90;99.90
13416;DHT22;6779;50.150;8.680;2022-07-06T01:17:01;18.90;99.90
13416;DHT22;6779;50.150;8.680;2022-07-06T01:19:26;18.90;99.90
13416;DHT22;6779;50.150;8.680;2022-07-06T01:21:52;18.80;99.90
13416;DHT22;6779;50.150;8.680;2022-07-06T01:24:18;18.80;99.90
13416;DHT22;6779;50.150;8.680;2022-07-06T01:26:44;18.70;99.90
13416;DHT22;6779;50.150;8.680;2022-07-06T01:29:10;18.70;99.90
13416;DHT22;6779;50.150;8.680;2022-07-06T01:31:44;18.70;99.90
13416;DHT22;6779;50.150;8.680;2022-07-06T01:34:11;18.70;99.90
13416;DHT22;6779;50.150;8.680;2022-07-06T01:36:37;18.70;99.90
13416;DHT22;6779;50.150;8.680;2022-07-06T01:39:02;18.70;99.90
13416;DHT22;6779;50.150;8.680;2022-07-06T01:41:28;18.70;99.90
13416;DHT22;6779;50.150;8.680;2022-07-06T01:43:53;18.60;99.90
13416;DHT22;6779;50.150;8.680;2022-07-06T01:46:19;18.50;99.90
13416;DHT22;6779;50.150;8.680;2022-07-06T01:48:46;18.50;99.90
13416;DHT22;6779;50.150;8.680;2022-07-06T01:51:12;18.50;99.90
13416;DHT22;6779;50.150;8.680;2022-07-06T01:53:38;18.50;99.90
13416;DHT22;6779;50.150;8.680;2022-07-06T01:56:04;18.50;99.90
13416;DHT22;6779;50.150;8.680;2022-07-06T01:58:29;18.50;99.90
13416;DHT22;6779;50.150;8.680;2022-07-06T02:00:55;18.40;99.90
13416;DHT22;6779;50.150;8.680;2022-07-06T02:03:21;18.30;99.90
13416;DHT22;6779;50.150;8.680;2022-07-06T02:05:46;18.20;99.90
13416;DHT22;6779;50.150;8.680;2022-07-06T02:08:12;18.20;99.90
13416;DHT22;6779;50.150;8.680;2022-07-06T02:10:38;18.30;99.90
13416;DHT22;6779;50.150;8.680;2022-07-06T02:13:03;18.30;99.90
13416;DHT22;6779;50.150;8.680;2022-07-06T02:15:29;18.20;99.90
13416;DHT22;6779;50.150;8.680;2022-07-06T02:17:54;18.20;99.90
13416;DHT22;6779;50.150;8.680;2022-07-06T02:20:20;18.10;99.90
13416;DHT22;6779;50.150;8.680;2022-07-06T02:22:46;18.10;99.90
13416;DHT22;6779;50.150;8.680;2022-07-06T02:25:11;18.10;99.90
13416;DHT22;6779;50.150;8.680;2022-07-06T02:27:37;18.10;99.90
13416;DHT22;6779;50.150;8.680;2022-07-06T02:30:03;18.10;99.90
13416;DHT22;6779;50.150;8.680;2022-07-06T02:32:29;17.90;99.90
13416;DHT22;6779;50.150;8.680;2022-07-06T02:34:54;17.90;99.90
13416;DHT22;6779;50.150;8.680;2022-07-06T02:37:20;17.80;99.90
13416;DHT22;6779;50.150;8.680;2022-07-06T02:39:46;17.90;1.00
13416;DHT22;6779;50.150;8.680;2022-07-06T02:42:11;17.80;1.00
13416;DHT22;6779;50.150;8.680;2022-07-06T02:44:37;17.70;1.00
13416;DHT22;6779;50.150;8.680;2022-07-06T02:47:03;17.70;1.00
13416;DHT22;6779;50.150;8.680;2022-07-06T02:49:28;17.60;1.00
13416;DHT22;6779;50.150;8.680;2022-07-06T02:51:54;17.60;1.00
13416;DHT22;6779;50.150;8.680;2022-07-06T02:54:19;17.60;1.00
13416;DHT22;6779;50.150;8.680;2022-07-06T02:56:45;17.50;1.00
13416;DHT22;6779;50.150;8.680;2022-07-06T02:59:16;17.50;1.00
13416;DHT22;6779;50.150;8.680;2022-07-06T03:01:42;17.60;1.00
13416;DHT22;6779;50.150;8.680;2022-07-06T03:04:07;17.50;1.00
13416;DHT22;6779;50.150;8.680;2022-07-06T03:06:33;17.50;1.00
13416;DHT22;6779;50.150;8.680;2022-07-06T03:08:58;17.50;1.00
13416;DHT22;6779;50.150;8.680;2022-07-06T03:11:24;17.50;1.00
13416;DHT22;6779;50.150;8.680;2022-07-06T03:13:49;17.40;99.90
13416;DHT22;6779;50.150;8.680;2022-07-06T03:16:15;17.40;99.90
13416;DHT22;6779;50.150;8.680;2022-07-06T03:18:40;17.30;1.00
13416;DHT22;6779;50.150;8.680;2022-07-06T03:21:06;17.20;1.00
13416;DHT22;6779;50.150;8.680;2022-07-06T03:23:32;17.20;1.00
13416;DHT22;6779;50.150;8.680;2022-07-06T03:25:57;17.20;99.90
13416;DHT22;6779;50.150;8.680;2022-07-06T03:28:23;17.20;99.90
13416;DHT22;6779;50.150;8.680;2022-07-06T03:30:48;17.10;99.90
13416;DHT22;6779;50.150;8.680;2022-07-06T03:33:14;17.10;1.00
13416;DHT22;6779;50.150;8.680;2022-07-06T03:35:39;17.00;99.90
13416;DHT22;6779;50.150;8.680;2022-07-06T03:38:05;17.00;1.00
13416;DHT22;6779;50.150;8.680;2022-07-06T03:40:31;17.10;99.90
13416;DHT22;6779;50.150;8.680;2022-07-06T03:42:56;17.10;1.00
13416;DHT22;6779;50.150;8.680;2022-07-06T03:45:22;17.00;99.90
13416;DHT22;6779;50.150;8.680;2022-07-06T03:47:47;17.00;1.00
13416;DHT22;6779;50.150;8.680;2022-07-06T03:50:13;17.10;1.00
13416;DHT22;6779;50.150;8.680;2022-07-06T03:52:39;17.10;1.00
13416;DHT22;6779;50.150;8.680;2022-07-06T03:55:08;17.10;1.00
13416;DHT22;6779;50.150;8.680;2022-07-06T03:57:34;17.00;99.90
13416;DHT22;6779;50.150;8.680;2022-07-06T03:59:59;17.00;99.90
13416;DHT22;6779;50.150;8.680;2022-07-06T04:02:25;17.10;1.00
13416;DHT22;6779;50.150;8.680;2022-07-06T04:04:50;17.10;1.00
13416;DHT22;6779;50.150;8.680;2022-07-06T04:07:16;17.10;1.00
13416;DHT22;6779;50.150;8.680;2022-07-06T04:09:42;17.10;99.90
13416;DHT22;6779;50.150;8.680;2022-07-06T04:12:07;17.10;99.90
13416;DHT22;6779;50.150;8.680;2022-07-06T04:14:33;17.10;1.00
13416;DHT22;6779;50.150;8.680;2022-07-06T04:17:00;17.00;1.00
13416;DHT22;6779;50.150;8.680;2022-07-06T04:19:45;17.00;1.00
13416;DHT22;6779;50.150;8.680;2022-07-06T04:22:11;17.10;1.00
13416;DHT22;6779;50.150;8.680;2022-07-06T04:24:37;17.00;1.00
13416;DHT22;6779;50.150;8.680;2022-07-06T04:27:02;17.00;1.00
13416;DHT22;6779;50.150;8.680;2022-07-06T04:29:28;17.00;1.00
13416;DHT22;6779;50.150;8.680;2022-07-06T04:31:54;16.90;1.00
13416;DHT22;6779;50.150;8.680;2022-07-06T04:34:19;17.00;1.00
13416;DHT22;6779;50.150;8.680;2022-07-06T04:36:45;17.10;1.00
13416;DHT22;6779;50.150;8.680;2022-07-06T04:39:10;17.20;1.00
13416;DHT22;6779;50.150;8.680;2022-07-06T04:41:36;17.20;1.00
13416;DHT22;6779;50.150;8.680;2022-07-06T04:44:02;17.10;1.00
13416;DHT22;6779;50.150;8.680;2022-07-06T04:46:27;17.20;1.00
13416;DHT22;6779;50.150;8.680;2022-07-06T04:48:53;17.20;1.00
13416;DHT22;6779;50.150;8.680;2022-07-06T04:51:18;17.10;1.00
13416;DHT22;6779;50.150;8.680;2022-07-06T04:53:44;17.20;1.00
13416;DHT22;6779;50.150;8.680;2022-07-06T04:56:11;17.20;1.00
13416;DHT22;6779;50.150;8.680;2022-07-06T04:58:36;17.20;1.00
13416;DHT22;6779;50.150;8.680;2022-07-06T05:01:02;17.20;1.00
13416;DHT22;6779;50.150;8.680;2022-07-06T05:03:27;17.30;1.00
13416;DHT22;6779;50.150;8.680;2022-07-06T05:05:53;17.30;1.00
13416;DHT22;6779;50.150;8.680;2022-07-06T05:08:18;17.20;1.00
13416;DHT22;6779;50.150;8.680;2022-07-06T05:10:44;17.40;1.00
13416;DHT22;6779;50.150;8.680;2022-07-06T05:13:10;17.40;1.00
13416;DHT22;6779;50.150;8.680;2022-07-06T05:15:36;17.40;1.00
13416;DHT22;6779;50.150;8.680;2022-07-06T05:18:01;17.40;1.00
13416;DHT22;6779;50.150;8.680;2022-07-06T05:20:27;17.40;1.00
13416;DHT22;6779;50.150;8.680;2022-07-06T05:22:52;17.40;1.00
13416;DHT22;6779;50.150;8.680;2022-07-06T05:25:18;17.40;1.00
13416;DHT22;6779;50.150;8.680;2022-07-06T05:27:44;17.40;1.00
13416;DHT22;6779;50.150;8.680;2022-07-06T05:30:10;17.40;1.00
13416;DHT22;6779;50.150;8.680;2022-07-06T05:32:35;17.50;1.00
13416;DHT22;6779;50.150;8.680;2022-07-06T05:35:01;17.50;1.00
13416;DHT22;6779;50.150;8.680;2022-07-06T05:37:26;17.50;1.00
13416;DHT22;6779;50.150;8.680;2022-07-06T05:39:52;17.50;1.00
13416;DHT22;6779;50.150;8.680;2022-07-06T05:42:18;17.60;1.00
13416;DHT22;6779;50.150;8.680;2022-07-06T05:44:43;17.60;1.00
13416;DHT22;6779;50.150;8.680;2022-07-06T05:47:09;17.70;1.00
13416;DHT22;6779;50.150;8.680;2022-07-06T05:49:53;17.70;1.00
13416;DHT22;6779;50.150;8.680;2022-07-06T05:52:37;17.80;1.00
13416;DHT22;6779;50.150;8.680;2022-07-06T05:55:03;17.90;1.00
13416;DHT22;6779;50.150;8.680;2022-07-06T05:57:28;18.10;1.00
13416;DHT22;6779;50.150;8.680;2022-07-06T05:59:54;18.10;1.00
13416;DHT22;6779;50.150;8.680;2022-07-06T06:02:20;18.20;1.00
13416;DHT22;6779;50.150;8.680;2022-07-06T06:04:45;18.30;99.90
13416;DHT22;6779;50.150;8.680;2022-07-06T06:07:11;18.40;99.90
13416;DHT22;6779;50.150;8.680;2022-07-06T06:09:36;18.50;99.90
13416;DHT22;6779;50.150;8.680;2022-07-06T06:12:02;18.50;99.90
13416;DHT22;6779;50.150;8.680;2022-07-06T06:14:28;18.50;99.90
13416;DHT22;6779;50.150;8.680;2022-07-06T06:16:53;18.60;99.90
13416;DHT22;6779;50.150;8.680;2022-07-06T06:19:19;18.60;99.90
13416;DHT22;6779;50.150;8.680;2022-07-06T06:21:44;18.70;99.90
13416;DHT22;6779;50.150;8.680;2022-07-06T06:24:10;18.70;99.90
13416;DHT22;6779;50.150;8.680;2022-07-06T06:26:35;18.80;99.90
13416;DHT22;6779;50.150;8.680;2022-07-06T06:29:01;18.90;99.90
13416;DHT22;6779;50.150;8.680;2022-07-06T06:31:26;19.00;99.90
13416;DHT22;6779;50.150;8.680;2022-07-06T06:33:52;19.10;99.90
13416;DHT22;6779;50.150;8.680;2022-07-06T06:36:18;19.00;99.90
13416;DHT22;6779;50.150;8.680;2022-07-06T06:38:44;19.00;99.90
13416;DHT22;6779;50.150;8.680;2022-07-06T06:41:09;19.00;99.90
13416;DHT22;6779;50.150;8.680;2022-07-06T06:43:35;19.00;99.90
13416;DHT22;6779;50.150;8.680;2022-07-06T06:46:01;19.00;99.90
13416;DHT22;6779;50.150;8.680;2022-07-06T06:48:26;19.10;99.90
13416;DHT22;6779;50.150;8.680;2022-07-06T06:50:52;19.20;99.90
13416;DHT22;6779;50.150;8.680;2022-07-06T06:53:17;19.20;99.90
13416;DHT22;6779;50.150;8.680;2022-07-06T06:55:43;19.30;99.90
13416;DHT22;6779;50.150;8.680;2022-07-06T06:58:09;19.40;99.90
13416;DHT22;6779;50.150;8.680;2022-07-06T07:00:34;19.30;99.90
13416;DHT22;6779;50.150;8.680;2022-07-06T07:03:00;19.20;99.90
13416;DHT22;6779;50.150;8.680;2022-07-06T07:05:26;19.20;99.90
13416;DHT22;6779;50.150;8.680;2022-07-06T07:07:51;19.20;99.90
13416;DHT22;6779;50.150;8.680;2022-07-06T07:10:17;19.30;99.90
13416;DHT22;6779;50.150;8.680;2022-07-06T07:12:46;19.30;99.90
13416;DHT22;6779;50.150;8.680;2022-07-06T07:15:13;19.40;99.90
13416;DHT22;6779;50.150;8.680;2022-07-06T07:17:40;19.40;99.90
13416;DHT22;6779;50.150;8.680;2022-07-06T07:20:06;19.50;99.90
13416;DHT22;6779;50.150;8.680;2022-07-06T07:22:32;19.50;99.90
13416;DHT22;6779;50.150;8.680;2022-07-06T07:24:58;19.40;99.90
13416;DHT22;6779;50.150;8.680;2022-07-06T07:27:26;19.40;99.90
13416;DHT22;6779;50.150;8.680;2022-07-06T07:29:52;19.50;99.90
13416;DHT22;6779;50.150;8.680;2022-07-06T07:32:19;19.50;99.90
13416;DHT22;6779;50.150;8.680;2022-07-06T07:34:45;19.50;99.90
13416;DHT22;6779;50.150;8.680;2022-07-06T07:37:11;19.50;99.90
13416;DHT22;6779;50.150;8.680;2022-07-06T07:39:36;19.70;99.90
13416;DHT22;6779;50.150;8.680;2022-07-06T07:42:02;19.80;99.90
13416;DHT22;6779;50.150;8.680;2022-07-06T07:44:28;19.90;99.90
13416;DHT22;6779;50.150;8.680;2022-07-06T07:46:54;20.20;99.90
13416;DHT22;6779;50.150;8.680;2022-07-06T07:49:19;20.40;99.90
13416;DHT22;6779;50.150;8.680;2022-07-06T07:51:47;20.50;99.90
13416;DHT22;6779;50.150;8.680;2022-07-06T07:54:12;20.60;99.90
13416;DHT22;6779;50.150;8.680;2022-07-06T07:56:39;20.80;99.90
13416;DHT22;6779;50.150;8.680;2022-07-06T07:59:06;21.00;99.90
13416;DHT22;6779;50.150;8.680;2022-07-06T08:01:32;21.00;99.90
13416;DHT22;6779;50.150;8.680;2022-07-06T08:03:58;20.80;99.90
13416;DHT22;6779;50.150;8.680;2022-07-06T08:06:24;20.70;99.90
13416;DHT22;6779;50.150;8.680;2022-07-06T08:08:49;20.50;99.90
13416;DHT22;6779;50.150;8.680;2022-07-06T08:11:15;20.40;99.90
13416;DHT22;6779;50.150;8.680;2022-07-06T08:13:41;20.50;99.90
13416;DHT22;6779;50.150;8.680;2022-07-06T08:16:07;20.60;99.90
13416;DHT22;6779;50.150;8.680;2022-07-06T08:18:33;20.60;99.90
13416;DHT22;6779;50.150;8.680;2022-07-06T08:20:59;20.70;99.90
13416;DHT22;6779;50.150;8.680;2022-07-06T08:23:25;20.80;99.90
13416;DHT22;6779;50.150;8.680;2022-07-06T08:25:50;20.90;99.90
13416;DHT22;6779;50.150;8.680;2022-07-06T08:28:16;20.90;99.90
13416;DHT22;6779;50.150;8.680;2022-07-06T08:30:41;20.80;99.90
13416;DHT22;6779;50.150;8.680;2022-07-06T08:33:07;20.80;99.90
13416;DHT22;6779;50.150;8.680;2022-07-06T08:35:33;20.80;99.90
13416;DHT22;6779;50.150;8.680;2022-07-06T08:37:58;21.00;99.90
13416;DHT22;6779;50.150;8.680;2022-07-06T08:40:25;21.10;99.90
13416;DHT22;6779;50.150;8.680;2022-07-06T08:42:54;21.00;99.90
13416;DHT22;6779;50.150;8.680;2022-07-06T08:45:20;21.00;99.90
13416;DHT22;6779;50.150;8.680;2022-07-06T08:47:49;21.00;99.90
13416;DHT22;6779;50.150;8.680;2022-07-06T08:50:15;21.00;99.90
13416;DHT22;6779;50.150;8.680;2022-07-06T08:52:42;21.10;99.90
13416;DHT22;6779;50.150;8.680;2022-07-06T08:55:08;21.10;99.90
13416;DHT22;6779;50.150;8.680;2022-07-06T08:57:34;21.20;99.90
13416;DHT22;6779;50.150;8.680;2022-07-06T09:00:00;21.50;99.90
13416;DHT22;6779;50.150;8.680;2022-07-06T09:02:27;21.90;99.90
13416;DHT22;6779;50.150;8.680;2022-07-06T09:04:56;22.20;99.90
13416;DHT22;6779;50.150;8.680;2022-07-06T09:07:24;22.10;99.90
13416;DHT22;6779;50.150;8.680;2022-07-06T09:09:50;22.20;99.90
13416;DHT22;6779;50.150;8.680;2022-07-06T09:12:16;22.20;99.90
13416;DHT22;6779;50.150;8.680;2022-07-06T09:14:42;22.30;99.90
13416;DHT22;6779;50.150;8.680;2022-07-06T09:17:08;22.20;99.90
13416;DHT22;6779;50.150;8.680;2022-07-06T09:19:34;22.20;99.90
13416;DHT22;6779;50.150;8.680;2022-07-06T09:22:04;22.20;99.90
13416;DHT22;6779;50.150;8.680;2022-07-06T09:24:30;22.50;99.90
13416;DHT22;6779;50.150;8.680;2022-07-06T09:26:57;22.00;99.90
13416;DHT22;6779;50.150;8.680;2022-07-06T09:29:28;22.70;99.90
13416;DHT22;6779;50.150;8.680;2022-07-06T09:32:01;23.10;99.90
13416;DHT22;6779;50.150;8.680;2022-07-06T09:34:41;24.10;99.90
13416;DHT22;6779;50.150;8.680;2022-07-06T09:37:08;25.90;99.90
13416;DHT22;6779;50.150;8.680;2022-07-06T09:39:33;26.40;99.90
13416;DHT22;6779;50.150;8.680;2022-07-06T09:42:01;28.00;99.90
13416;DHT22;6779;50.150;8.680;2022-07-06T09:44:30;29.40;99.90
13416;DHT22;6779;50.150;8.680;2022-07-06T09:47:03;27.90;99.90
13416;DHT22;6779;50.150;8.680;2022-07-06T09:49:29;26.40;99.90
13416;DHT22;6779;50.150;8.680;2022-07-06T09:51:57;25.40;99.90
13416;DHT22;6779;50.150;8.680;2022-07-06T09:54:23;25.00;99.90
13416;DHT22;6779;50.150;8.680;2022-07-06T09:56:49;24.70;99.90
13416;DHT22;6779;50.150;8.680;2022-07-06T09:59:25;23.90;99.90
13416;DHT22;6779;50.150;8.680;2022-07-06T10:02:05;25.30;99.90
13416;DHT22;6779;50.150;8.680;2022-07-06T10:04:31;27.30;99.90
13416;DHT22;6779;50.150;8.680;2022-07-06T10:06:58;28.40;99.90
13416;DHT22;6779;50.150;8.680;2022-07-06T10:09:26;29.00;99.90
13416;DHT22;6779;50.150;8.680;2022-07-06T10:12:00;30.10;99.90
13416;DHT22;6779;50.150;8.680;2022-07-06T10:14:30;30.20;99.90
13416;DHT22;6779;50.150;8.680;2022-07-06T10:16:58;30.70;99.90
13416;DHT22;6779;50.150;8.680;2022-07-06T10:19:24;30.60;99.90
13416;DHT22;6779;50.150;8.680;2022-07-06T10:21:50;31.00;99.90
13416;DHT22;6779;50.150;8.680;2022-07-06T10:24:20;31.00;99.90
13416;DHT22;6779;50.150;8.680;2022-07-06T10:26:47;32.00;99.90
13416;DHT22;6779;50.150;8.680;2022-07-06T10:29:13;31.50;99.90
13416;DHT22;6779;50.150;8.680;2022-07-06T10:31:47;31.70;99.90
13416;DHT22;6779;50.150;8.680;2022-07-06T10:34:15;31.80;99.90
13416;DHT22;6779;50.150;8.680;2022-07-06T10:36:44;30.60;99.90
13416;DHT22;6779;50.150;8.680;2022-07-06T10:39:10;29.00;99.90
13416;DHT22;6779;50.150;8.680;2022-07-06T10:41:55;27.90;99.90
13416;DHT22;6779;50.150;8.680;2022-07-06T10:44:23;27.10;99.90
13416;DHT22;6779;50.150;8.680;2022-07-06T10:46:53;26.00;99.90
13416;DHT22;6779;50.150;8.680;2022-07-06T10:49:19;25.40;99.90
13416;DHT22;6779;50.150;8.680;2022-07-06T10:51:46;25.30;99.90
13416;DHT22;6779;50.150;8.680;2022-07-06T10:54:12;25.00;99.90
13416;DHT22;6779;50.150;8.680;2022-07-06T10:56:40;24.30;99.90
13416;DHT22;6779;50.150;8.680;2022-07-06T10:59:12;24.00;99.90
13416;DHT22;6779;50.150;8.680;2022-07-06T11:01:38;24.40;99.90
13416;DHT22;6779;50.150;8.680;2022-07-06T11:04:06;25.90;99.90
13416;DHT22;6779;50.150;8.680;2022-07-06T11:06:33;28.00;99.90
13416;DHT22;6779;50.150;8.680;2022-07-06T11:14:05;30.40;99.90
13416;DHT22;6779;50.150;8.680;2022-07-06T11:16:33;31.10;99.90
13416;DHT22;6779;50.150;8.680;2022-07-06T11:24:06;32.00;99.90
13416;DHT22;6779;50.150;8.680;2022-07-06T11:26:33;30.70;99.90
13416;DHT22;6779;50.150;8.680;2022-07-06T11:29:05;28.10;99.90
13416;DHT22;6779;50.150;8.680;2022-07-06T11:31:35;27.10;99.90
13416;DHT22;6779;50.150;8.680;2022-07-06T11:34:04;25.90;99.90
13416;DHT22;6779;50.150;8.680;2022-07-06T11:36:30;26.10;99.90
13416;DHT22;6779;50.150;8.680;2022-07-06T11:38:56;27.20;99.90
13416;DHT22;6779;50.150;8.680;2022-07-06T11:41:22;27.30;99.90
13416;DHT22;6779;50.150;8.680;2022-07-06T11:43:47;27.70;99.90
13416;DHT22;6779;50.150;8.680;2022-07-06T11:46:20;28.10;99.90
13416;DHT22;6779;50.150;8.680;2022-07-06T11:48:47;28.30;99.90
13416;DHT22;6779;50.150;8.680;2022-07-06T11:51:14;28.10;99.90
13416;DHT22;6779;50.150;8.680;2022-07-06T11:53:46;27.10;99.90
13416;DHT22;6779;50.150;8.680;2022-07-06T11:56:14;27.40;99.90
13416;DHT22;6779;50.150;8.680;2022-07-06T11:58:40;27.10;99.90
13416;DHT22;6779;50.150;8.680;2022-07-06T12:01:09;27.10;99.90
13416;DHT22;6779;50.150;8.680;2022-07-06T12:03:35;27.40;99.90
13416;DHT22;6779;50.150;8.680;2022-07-06T12:06:02;27.70;99.90
13416;DHT22;6779;50.150;8.680;2022-07-06T12:08:28;27.80;99.90
13416;DHT22;6779;50.150;8.680;2022-07-06T12:10:54;27.90;99.90
13416;DHT22;6779;50.150;8.680;2022-07-06T12:13:21;28.20;99.90
13416;DHT22;6779;50.150;8.680;2022-07-06T12:15:46;28.20;99.90
13416;DHT22;6779;50.150;8.680;2022-07-06T12:18:12;28.20;99.90
13416;DHT22;6779;50.150;8.680;2022-07-06T12:20:37;27.70;99.90
13416;DHT22;6779;50.150;8.680;2022-07-06T12:23:04;27.10;99.90
13416;DHT22;6779;50.150;8.680;2022-07-06T12:25:35;27.00;99.90
13416;DHT22;6779;50.150;8.680;2022-07-06T12:28:01;27.30;99.90
13416;DHT22;6779;50.150;8.680;2022-07-06T12:30:26;27.10;99.90
13416;DHT22;6779;50.150;8.680;2022-07-06T12:33:12;26.60;99.90
13416;DHT22;6779;50.150;8.680;2022-07-06T12:35:40;26.30;99.90
13416;DHT22;6779;50.150;8.680;2022-07-06T12:38:05;26.40;99.90
13416;DHT22;6779;50.150;8.680;2022-07-06T12:40:31;26.10;99.90
13416;DHT22;6779;50.150;8.680;2022-07-06T12:42:57;26.30;99.90
13416;DHT22;6779;50.150;8.680;2022-07-06T12:45:27;26.20;99.90
13416;DHT22;6779;50.150;8.680;2022-07-06T12:48:00;26.00;99.90
13416;DHT22;6779;50.150;8.680;2022-07-06T12:50:34;26.00;99.90
13416;DHT22;6779;50.150;8.680;2022-07-06T12:53:00;25.70;99.90
13416;DHT22;6779;50.150;8.680;2022-07-06T12:55:27;25.70;99.90
13416;DHT22;6779;50.150;8.680;2022-07-06T12:57:54;25.90;99.90
13416;DHT22;6779;50.150;8.680;2022-07-06T13:00:20;25.40;99.90
13416;DHT22;6779;50.150;8.680;2022-07-06T13:02:50;24.90;99.90
13416;DHT22;6779;50.150;8.680;2022-07-06T13:05:24;25.10;99.90
13416;DHT22;6779;50.150;8.680;2022-07-06T13:07:54;25.50;99.90
13416;DHT22;6779;50.150;8.680;2022-07-06T13:10:21;25.60;99.90
13416;DHT22;6779;50.150;8.680;2022-07-06T13:12:47;25.80;99.90
13416;DHT22;6779;50.150;8.680;2022-07-06T13:15:13;25.90;99.90
13416;DHT22;6779;50.150;8.680;2022-07-06T13:17:39;26.20;99.90
13416;DHT22;6779;50.150;8.680;2022-07-06T13:20:10;26.50;99.90
13416;DHT22;6779;50.150;8.680;2022-07-06T13:22:36;26.70;99.90
13416;DHT22;6779;50.150;8.680;2022-07-06T13:25:01;26.30;99.90
13416;DHT22;6779;50.150;8.680;2022-07-06T13:27:27;26.00;99.90
13416;DHT22;6779;50.150;8.680;2022-07-06T13:29:54;25.80;99.90
13416;DHT22;6779;50.150;8.680;2022-07-06T13:32:19;25.10;99.90
13416;DHT22;6779;50.150;8.680;2022-07-06T13:34:45;25.40;99.90
13416;DHT22;6779;50.150;8.680;2022-07-06T13:37:11;25.70;99.90
13416;DHT22;6779;50.150;8.680;2022-07-06T13:39:36;25.80;99.90
13416;DHT22;6779;50.150;8.680;2022-07-06T13:42:02;26.10;99.90
13416;DHT22;6779;50.150;8.680;2022-07-06T13:44:28;26.40;99.90
13416;DHT22;6779;50.150;8.680;2022-07-06T13:46:54;26.50;99.90
13416;DHT22;6779;50.150;8.680;2022-07-06T13:49:19;26.50;99.90
13416;DHT22;6779;50.150;8.680;2022-07-06T13:51:46;26.50;99.90
13416;DHT22;6779;50.150;8.680;2022-07-06T13:54:12;26.30;99.90
13416;DHT22;6779;50.150;8.680;2022-07-06T13:56:38;25.90;99.90
13416;DHT22;6779;50.150;8.680;2022-07-06T13:59:04;25.70;99.90
13416;DHT22;6779;50.150;8.680;2022-07-06T14:01:30;25.50;99.90
13416;DHT22;6779;50.150;8.680;2022-07-06T14:03:56;25.80;99.90
13416;DHT22;6779;50.150;8.680;2022-07-06T14:06:22;25.30;99.90
13416;DHT22;6779;50.150;8.680;2022-07-06T14:08:48;25.50;99.90
13416;DHT22;6779;50.150;8.680;2022-07-06T14:11:14;25.50;99.90
13416;DHT22;6779;50.150;8.680;2022-07-06T14:13:40;25.80;99.90
13416;DHT22;6779;50.150;8.680;2022-07-06T14:16:06;26.10;99.90
13416;DHT22;6779;50.150;8.680;2022-07-06T14:18:32;26.20;99.90
13416;DHT22;6779;50.150;8.680;2022-07-06T14:20:58;26.20;99.90
13416;DHT22;6779;50.150;8.680;2022-07-06T14:23:25;26.00;99.90
13416;DHT22;6779;50.150;8.680;2022-07-06T14:25:52;26.00;99.90
13416;DHT22;6779;50.150;8.680;2022-07-06T14:28:18;25.90;99.90
13416;DHT22;6779;50.150;8.680;2022-07-06T14:30:44;25.70;99.90
13416;DHT22;6779;50.150;8.680;2022-07-06T14:33:11;25.60;99.90
13416;DHT22;6779;50.150;8.680;2022-07-06T14:35:43;25.30;99.90
13416;DHT22;6779;50.150;8.680;2022-07-06T14:38:08;25.20;99.90
13416;DHT22;6779;50.150;8.680;2022-07-06T14:40:35;25.10;99.90
13416;DHT22;6779;50.150;8.680;2022-07-06T14:43:01;25.10;99.90
13416;DHT22;6779;50.150;8.680;2022-07-06T14:45:27;24.90;99.90
13416;DHT22;6779;50.150;8.680;2022-07-06T14:47:53;24.80;99.90
13416;DHT22;6779;50.150;8.680;2022-07-06T14:50:20;24.20;99.90
13416;DHT22;6779;50.150;8.680;2022-07-06T14:52:48;24.20;99.90
13416;DHT22;6779;50.150;8.680;2022-07-06T14:55:14;24.00;99.90
13416;DHT22;6779;50.150;8.680;2022-07-06T14:57:39;24.00;99.90
13416;DHT22;6779;50.150;8.680;2022-07-06T15:00:05;24.10;99.90
13416;DHT22;6779;50.150;8.680;2022-07-06T15:02:31;24.10;99.90
13416;DHT22;6779;50.150;8.680;2022-07-06T15:04:57;24.10;99.90
13416;DHT22;6779;50.150;8.680;2022-07-06T15:07:22;23.60;99.90
13416;DHT22;6779;50.150;8.680;2022-07-06T15:09:48;23.80;99.90
13416;DHT22;6779;50.150;8.680;2022-07-06T15:12:13;23.70;99.90
13416;DHT22;6779;50.150;8.680;2022-07-06T15:14:39;23.80;99.90
13416;DHT22;6779;50.150;8.680;2022-07-06T15:17:05;23.50;99.90
13416;DHT22;6779;50.150;8.680;2022-07-06T15:19:30;23.10;99.90
13416;DHT22;6779;50.150;8.680;2022-07-06T15:21:56;23.20;99.90
13416;DHT22;6779;50.150;8.680;2022-07-06T15:24:22;23.20;99.90
13416;DHT22;6779;50.150;8.680;2022-07-06T15:26:50;23.00;99.90
13416;DHT22;6779;50.150;8.680;2022-07-06T15:29:15;23.00;99.90
13416;DHT22;6779;50.150;8.680;2022-07-06T15:31:41;22.80;99.90
13416;DHT22;6779;50.150;8.680;2022-07-06T15:34:07;22.90;99.90
13416;DHT22;6779;50.150;8.680;2022-07-06T15:36:32;23.10;99.90
13416;DHT22;6779;50.150;8.680;2022-07-06T15:38:58;23.20;99.90
13416;DHT22;6779;50.150;8.680;2022-07-06T15:41:23;23.40;99.90
13416;DHT22;6779;50.150;8.680;2022-07-06T15:43:49;23.20;99.90
13416;DHT22;6779;50.150;8.680;2022-07-06T15:46:15;22.90;99.90
13416;DHT22;6779;50.150;8.680;2022-07-06T15:48:40;23.10;99.90
13416;DHT22;6779;50.150;8.680;2022-07-06T15:51:06;23.30;99.90
13416;DHT22;6779;50.150;8.680;2022-07-06T15:53:31;23.30;99.90
13416;DHT22;6779;50.150;8.680;2022-07-06T15:55:58;23.40;99.90